sensor_id;sensor_type;location;lat;lon;timestamp;pressure;altitude;pressure_sealevel;temperature;humidity
73674;BME280;61975;48.660;10.164;2022-10-26T00:00:21;95722.75;;;9.89;100.00
73674;BME280;61975;48.660;10.164;2022-10-26T00:02:47;95731.94;;;9.93;100.00
73674;BME280;61975;48.660;10.164;2022-10-26T00:05:12;95721.69;;;9.97;100.00
73674;BME280;61975;48.660;10.164;2022-10-26T00:07:38;95725.28;;;10.01;100.00
73674;BME280;61975;48.660;10.164;2022-10-26T00:10:04;95727.31;;;10.04;100.00
73674;BME280;61975;48.660;10.164;2022-10-26T00:12:29;95724.97;;;10.06;100.00
73674;BME280;61975;48.660;10.164;2022-10-26T00:14:54;95714.69;;;10.07;100.00
73674;BME280;61975;48.660;10.164;2022-10-26T00:17:20;95708.75;;;10.08;100.00
73674;BME280;61975;48.660;10.164;2022-10-26T00:19:45;95708.75;;;10.08;100.00
73674;BME280;61975;48.660;10.164;2022-10-26T00:22:10;95705.19;;;10.08;100.00
73674;BME280;61975;48.660;10.164;2022-10-26T00:24:36;95702.03;;;10.09;100.00
73674;BME280;61975;48.660;10.164;2022-10-26T00:27:01;95707.56;;;10.09;100.00
73674;BME280;61975;48.660;10.164;2022-10-26T00:29:27;95707.56;;;10.06;100.00
73674;BME280;61975;48.660;10.164;2022-10-26T00:31:52;95719.78;;;10.05;100.00
73674;BME280;61975;48.660;10.164;2022-10-26T00:34:17;95724.53;;;10.04;100.00
73674;BME280;61975;48.660;10.164;2022-10-26T00:36:43;95723.72;;;10.04;100.00
73674;BME280;61975;48.660;10.164;2022-10-26T00:39:11;95724.22;;;10.09;100.00
73674;BME280;61975;48.660;10.164;2022-10-26T00:41:37;95727.44;;;10.11;100.00
73674;BME280;61975;48.660;10.164;2022-10-26T00:47:09;95720.38;;;10.17;100.00
73674;BME280;61975;48.660;10.164;2022-10-26T00:49:37;95725.91;;;10.17;100.00
73674;BME280;61975;48.660;10.164;2022-10-26T00:52:03;95725.91;;;10.17;100.00
73674;BME280;61975;48.660;10.164;2022-10-26T00:54:28;95721.97;;;10.18;100.00
73674;BME280;61975;48.660;10.164;2022-10-26T00:56:54;95726.31;;;10.19;100.00
73674;BME280;61975;48.660;10.164;2022-10-26T00:59:20;95726.75;;;10.21;100.00
73674;BME280;61975;48.660;10.164;2022-10-26T01:01:48;95714.47;;;10.22;100.00
73674;BME280;61975;48.660;10.164;2022-10-26T01:04:14;95725.94;;;10.21;100.00
73674;BME280;61975;48.660;10.164;2022-10-26T01:06:41;95715.66;;;10.21;100.00
73674;BME280;61975;48.660;10.164;2022-10-26T01:09:08;95713.66;;;10.22;100.00
73674;BME280;61975;48.660;10.164;2022-10-26T01:11:33;95716.44;;;10.22;100.00
73674;BME280;61975;48.660;10.164;2022-10-26T01:14:00;95712.06;;;10.21;100.00
73674;BME280;61975;48.660;10.164;2022-10-26T01:22:35;95711.25;;;10.20;100.00
73674;BME280;61975;48.660;10.164;2022-10-26T01:27:57;95712.44;;;10.19;100.00
73674;BME280;61975;48.660;10.164;2022-10-26T01:30:43;95703.66;;;10.14;100.00
73674;BME280;61975;48.660;10.164;2022-10-26T01:38:50;95709.69;;;10.19;100.00
73674;BME280;61975;48.660;10.164;2022-10-26T01:44:41;95706.97;;;10.23;100.00
73674;BME280;61975;48.660;10.164;2022-10-26T01:47:12;95706.22;;;10.26;100.00
73674;BME280;61975;48.660;10.164;2022-10-26T01:49:46;95701.44;;;10.26;100.00
73674;BME280;61975;48.660;10.164;2022-10-26T01:52:12;95702.25;;;10.27;100.00
73674;BME280;61975;48.660;10.164;2022-10-26T01:54:38;95703.44;;;10.29;100.00
73674;BME280;61975;48.660;10.164;2022-10-26T01:57:09;95695.19;;;10.33;100.00
73674;BME280;61975;48.660;10.164;2022-10-26T02:00:28;95705.50;;;10.36;100.00
73674;BME280;61975;48.660;10.164;2022-10-26T02:02:58;95700.72;;;10.33;100.00
73674;BME280;61975;48.660;10.164;2022-10-26T02:05:30;95702.31;;;10.34;100.00
73674;BME280;61975;48.660;10.164;2022-10-26T02:11:39;95709.06;;;10.36;100.00
73674;BME280;61975;48.660;10.164;2022-10-26T02:14:28;95709.50;;;10.38;100.00
73674;BME280;61975;48.660;10.164;2022-10-26T02:17:04;95705.56;;;10.43;100.00
73674;BME280;61975;48.660;10.164;2022-10-26T02:22:14;95674.25;;;10.42;100.00
73674;BME280;61975;48.660;10.164;2022-10-26T02:24:42;95656.00;;;10.41;100.00
73674;BME280;61975;48.660;10.164;2022-10-26T02:27:14;95664.72;;;10.40;100.00
73674;BME280;61975;48.660;10.164;2022-10-26T02:29:41;95656.34;;;10.36;100.00
73674;BME280;61975;48.660;10.164;2022-10-26T02:32:08;95661.16;;;10.39;100.00
73674;BME280;61975;48.660;10.164;2022-10-26T02:34:37;95669.47;;;10.39;100.00
73674;BME280;61975;48.660;10.164;2022-10-26T02:37:05;95676.22;;;10.38;100.00
73674;BME280;61975;48.660;10.164;2022-10-26T02:39:32;95664.31;;;10.38;100.00
73674;BME280;61975;48.660;10.164;2022-10-26T02:42:03;95669.47;;;10.39;100.00
73674;BME280;61975;48.660;10.164;2022-10-26T02:44:35;95683.38;;;10.43;100.00
73674;BME280;61975;48.660;10.164;2022-10-26T02:47:03;95686.53;;;10.41;100.00
73674;BME280;61975;48.660;10.164;2022-10-26T02:49:28;95672.66;;;10.41;100.00
73674;BME280;61975;48.660;10.164;2022-10-26T02:52:05;95681.03;;;10.45;100.00
73674;BME280;61975;48.660;10.164;2022-10-26T02:57:00;95673.13;;;10.47;100.00
73674;BME280;61975;48.660;10.164;2022-10-26T02:59:34;95667.97;;;10.49;100.00
73674;BME280;61975;48.660;10.164;2022-10-26T03:02:01;95663.59;;;10.48;100.00
73674;BME280;61975;48.660;10.164;2022-10-26T03:04:29;95669.97;;;10.48;100.00
73674;BME280;61975;48.660;10.164;2022-10-26T03:06:54;95665.56;;;10.47;100.00
73674;BME280;61975;48.660;10.164;2022-10-26T03:09:20;95665.56;;;10.47;100.00
73674;BME280;61975;48.660;10.164;2022-10-26T03:11:46;95676.28;;;10.45;100.00
73674;BME280;61975;48.660;10.164;2022-10-26T03:14:11;95685.75;;;10.41;100.00
73674;BME280;61975;48.660;10.164;2022-10-26T03:16:37;95685.69;;;10.37;100.00
73674;BME280;61975;48.660;10.164;2022-10-26T03:19:02;95703.16;;;10.38;100.00
73674;BME280;61975;48.660;10.164;2022-10-26T03:21:27;95704.75;;;10.39;100.00
73674;BME280;61975;48.660;10.164;2022-10-26T03:23:53;95719.44;;;10.43;100.00
73674;BME280;61975;48.660;10.164;2022-10-26T03:26:19;95710.34;;;10.42;100.00
73674;BME280;61975;48.660;10.164;2022-10-26T03:28:44;95703.22;;;10.45;100.00
73674;BME280;61975;48.660;10.164;2022-10-26T03:31:10;95698.88;;;10.47;100.00
73674;BME280;61975;48.660;10.164;2022-10-26T03:33:35;95706.44;;;10.50;100.00
73674;BME280;61975;48.660;10.164;2022-10-26T03:36:00;95719.13;;;10.51;100.00
73674;BME280;61975;48.660;10.164;2022-10-26T03:38:26;95720.75;;;10.52;100.00
73674;BME280;61975;48.660;10.164;2022-10-26T03:40:51;95714.03;;;10.53;100.00
73674;BME280;61975;48.660;10.164;2022-10-26T03:43:17;95720.78;;;10.56;100.00
73674;BME280;61975;48.660;10.164;2022-10-26T03:45:42;95731.09;;;10.55;100.00
73674;BME280;61975;48.660;10.164;2022-10-26T03:48:08;95728.31;;;10.55;100.00
73674;BME280;61975;48.660;10.164;2022-10-26T03:50:33;95739.81;;;10.57;100.00
73674;BME280;61975;48.660;10.164;2022-10-26T03:52:58;95740.50;;;10.47;100.00
73674;BME280;61975;48.660;10.164;2022-10-26T03:55:24;95737.75;;;10.47;100.00
73674;BME280;61975;48.660;10.164;2022-10-26T03:57:49;95742.16;;;10.52;100.00
73674;BME280;61975;48.660;10.164;2022-10-26T04:00:16;95745.75;;;10.56;100.00
73674;BME280;61975;48.660;10.164;2022-10-26T04:02:45;95745.81;;;10.59;100.00
73674;BME280;61975;48.660;10.164;2022-10-26T04:05:17;95751.75;;;10.61;100.00
73674;BME280;61975;48.660;10.164;2022-10-26T04:07:42;95750.59;;;10.62;100.00
73674;BME280;61975;48.660;10.164;2022-10-26T04:10:09;95757.00;;;10.66;100.00
73674;BME280;61975;48.660;10.164;2022-10-26T04:12:37;95766.84;;;10.64;100.00
73674;BME280;61975;48.660;10.164;2022-10-26T04:15:03;95781.53;;;10.64;100.00
73674;BME280;61975;48.660;10.164;2022-10-26T04:17:30;95789.88;;;10.64;100.00
73674;BME280;61975;48.660;10.164;2022-10-26T04:19:56;95787.09;;;10.64;100.00
73674;BME280;61975;48.660;10.164;2022-10-26T04:22:21;95780.34;;;10.65;100.00
73674;BME280;61975;48.660;10.164;2022-10-26T04:24:46;95795.47;;;10.68;100.00
73674;BME280;61975;48.660;10.164;2022-10-26T04:27:13;95793.47;;;10.68;100.00
73674;BME280;61975;48.660;10.164;2022-10-26T04:29:38;95781.63;;;10.71;100.00
73674;BME280;61975;48.660;10.164;2022-10-26T04:32:04;95763.38;;;10.70;100.00
73674;BME280;61975;48.660;10.164;2022-10-26T04:34:31;95774.03;;;10.68;100.00
73674;BME280;61975;48.660;10.164;2022-10-26T04:36:56;95784.38;;;10.68;100.00
73674;BME280;61975;48.660;10.164;2022-10-26T04:39:22;95782.00;;;10.70;100.00
73674;BME280;61975;48.660;10.164;2022-10-26T04:41:47;95786.41;;;10.74;100.00
73674;BME280;61975;48.660;10.164;2022-10-26T04:44:13;95783.69;;;10.78;100.00
73674;BME280;61975;48.660;10.164;2022-10-26T04:46:38;95783.63;;;10.74;100.00
73674;BME280;61975;48.660;10.164;2022-10-26T04:49:03;95792.41;;;10.76;100.00
73674;BME280;61975;48.660;10.164;2022-10-26T04:51:29;95786.47;;;10.78;100.00
73674;BME280;61975;48.660;10.164;2022-10-26T04:53:54;95795.94;;;10.73;100.00
73674;BME280;61975;48.660;10.164;2022-10-26T04:56:20;95781.66;;;10.75;100.00
73674;BME280;61975;48.660;10.164;2022-10-26T04:58:45;95745.94;;;10.73;100.00
73674;BME280;61975;48.660;10.164;2022-10-26T05:01:11;95699.53;;;10.74;100.00
73674;BME280;61975;48.660;10.164;2022-10-26T05:03:36;95693.97;;;10.70;100.00
73674;BME280;61975;48.660;10.164;2022-10-26T05:06:01;95714.53;;;10.62;100.00
73674;BME280;61975;48.660;10.164;2022-10-26T05:08:27;95728.72;;;10.57;100.00
73674;BME280;61975;48.660;10.164;2022-10-26T05:10:54;95733.09;;;10.58;100.00
73674;BME280;61975;48.660;10.164;2022-10-26T05:13:19;95749.28;;;10.49;100.00
73674;BME280;61975;48.660;10.164;2022-10-26T05:15:45;95764.66;;;10.43;100.00
73674;BME280;61975;48.660;10.164;2022-10-26T05:18:10;95760.69;;;10.44;100.00
73674;BME280;61975;48.660;10.164;2022-10-26T05:20:36;95747.63;;;10.45;100.00
73674;BME280;61975;48.660;10.164;2022-10-26T05:23:04;95756.75;;;10.45;100.00
73674;BME280;61975;48.660;10.164;2022-10-26T05:25:33;95768.25;;;10.47;100.00
73674;BME280;61975;48.660;10.164;2022-10-26T05:28:00;95761.97;;;10.50;100.00
73674;BME280;61975;48.660;10.164;2022-10-26T05:30:27;95769.88;;;10.48;100.00
73674;BME280;61975;48.660;10.164;2022-10-26T05:32:57;95773.06;;;10.50;100.00
73674;BME280;61975;48.660;10.164;2022-10-26T05:35:23;95782.59;;;10.53;100.00
73674;BME280;61975;48.660;10.164;2022-10-26T05:37:50;95787.78;;;10.54;100.00
73674;BME280;61975;48.660;10.164;2022-10-26T05:40:15;95785.00;;;10.54;100.00
73674;BME280;61975;48.660;10.164;2022-10-26T05:42:42;95781.06;;;10.55;100.00
73674;BME280;61975;48.660;10.164;2022-10-26T05:45:07;95774.31;;;10.56;100.00
73674;BME280;61975;48.660;10.164;2022-10-26T05:47:40;95771.16;;;10.58;100.00
73674;BME280;61975;48.660;10.164;2022-10-26T05:50:06;95784.69;;;10.59;100.00
73674;BME280;61975;48.660;10.164;2022-10-26T05:52:42;95792.19;;;10.59;100.00
73674;BME280;61975;48.660;10.164;2022-10-26T05:55:09;95783.06;;;10.58;100.00
73674;BME280;61975;48.660;10.164;2022-10-26T05:57:35;95792.19;;;10.59;100.00
73674;BME280;61975;48.660;10.164;2022-10-26T06:00:05;95791.38;;;10.58;100.00
73674;BME280;61975;48.660;10.164;2022-10-26T06:05:23;95794.59;;;10.60;100.00
73674;BME280;61975;48.660;10.164;2022-10-26T06:07:50;95786.69;;;10.62;100.00
73674;BME280;61975;48.660;10.164;2022-10-26T06:10:16;95786.34;;;10.67;100.00
73674;BME280;61975;48.660;10.164;2022-10-26T06:12:43;95791.50;;;10.69;100.00
73674;BME280;61975;48.660;10.164;2022-10-26T06:15:18;95790.75;;;10.72;100.00
73674;BME280;61975;48.660;10.164;2022-10-26T06:18:07;95798.31;;;10.75;100.00
73674;BME280;61975;48.660;10.164;2022-10-26T06:31:15;95813.03;;;10.79;100.00
73674;BME280;61975;48.660;10.164;2022-10-26T06:33:41;95817.78;;;10.78;100.00
73674;BME280;61975;48.660;10.164;2022-10-26T06:36:22;95821.41;;;10.82;100.00
73674;BME280;61975;48.660;10.164;2022-10-26T06:38:51;95818.66;;;10.86;100.00
73674;BME280;61975;48.660;10.164;2022-10-26T06:41:18;95823.47;;;10.89;100.00
73674;BME280;61975;48.660;10.164;2022-10-26T06:43:46;95818.75;;;10.93;100.00
73674;BME280;61975;48.660;10.164;2022-10-26T06:46:24;95826.34;;;10.99;100.00
73674;BME280;61975;48.660;10.164;2022-10-26T06:51:23;95836.31;;;11.04;100.00
73674;BME280;61975;48.660;10.164;2022-10-26T06:54:00;95831.22;;;11.09;100.00
73674;BME280;61975;48.660;10.164;2022-10-26T06:56:29;95822.06;;;11.09;100.00
73674;BME280;61975;48.660;10.164;2022-10-26T06:59:02;95823.31;;;11.15;100.00
73674;BME280;61975;48.660;10.164;2022-10-26T07:01:30;95825.00;;;11.23;100.00
73674;BME280;61975;48.660;10.164;2022-10-26T07:03:56;95828.69;;;11.34;100.00
73674;BME280;61975;48.660;10.164;2022-10-26T07:06:21;95831.16;;;11.46;100.00
73674;BME280;61975;48.660;10.164;2022-10-26T07:08:46;95831.25;;;11.57;100.00
73674;BME280;61975;48.660;10.164;2022-10-26T07:11:12;95834.13;;;11.67;100.00
73674;BME280;61975;48.660;10.164;2022-10-26T07:13:37;95833.84;;;11.83;100.00
73674;BME280;61975;48.660;10.164;2022-10-26T07:16:03;95832.38;;;11.96;100.00
73674;BME280;61975;48.660;10.164;2022-10-26T07:18:28;95836.44;;;12.09;100.00
73674;BME280;61975;48.660;10.164;2022-10-26T07:20:54;95838.50;;;12.22;100.00
73674;BME280;61975;48.660;10.164;2022-10-26T07:23:19;95842.13;;;12.33;100.00
73674;BME280;61975;48.660;10.164;2022-10-26T07:25:46;95844.59;;;12.45;100.00
73674;BME280;61975;48.660;10.164;2022-10-26T07:28:11;95854.94;;;12.52;100.00
73674;BME280;61975;48.660;10.164;2022-10-26T07:30:37;95858.56;;;12.59;100.00
73674;BME280;61975;48.660;10.164;2022-10-26T07:33:08;95859.00;;;12.65;100.00
73674;BME280;61975;48.660;10.164;2022-10-26T07:35:34;95855.03;;;12.69;100.00
73674;BME280;61975;48.660;10.164;2022-10-26T07:38:00;95864.56;;;12.68;100.00
73674;BME280;61975;48.660;10.164;2022-10-26T07:40:26;95869.34;;;12.68;100.00
73674;BME280;61975;48.660;10.164;2022-10-26T07:42:55;95878.50;;;12.65;100.00
73674;BME280;61975;48.660;10.164;2022-10-26T07:45:21;95886.84;;;12.65;100.00
73674;BME280;61975;48.660;10.164;2022-10-26T07:47:48;95885.66;;;12.66;100.00
73674;BME280;61975;48.660;10.164;2022-10-26T07:50:14;95880.50;;;12.71;100.00
73674;BME280;61975;48.660;10.164;2022-10-26T07:52:39;95879.75;;;12.78;100.00
73674;BME280;61975;48.660;10.164;2022-10-26T07:55:09;95889.31;;;12.84;100.00
73674;BME280;61975;48.660;10.164;2022-10-26T07:57:35;95900.13;;;12.96;100.00
73674;BME280;61975;48.660;10.164;2022-10-26T08:00:02;95895.41;;;13.07;100.00
73674;BME280;61975;48.660;10.164;2022-10-26T08:02:28;95893.44;;;13.18;100.00
73674;BME280;61975;48.660;10.164;2022-10-26T08:04:53;95893.47;;;13.21;100.00
73674;BME280;61975;48.660;10.164;2022-10-26T08:07:19;95899.06;;;13.21;100.00
73674;BME280;61975;48.660;10.164;2022-10-26T08:09:45;95899.84;;;13.25;100.00
73674;BME280;61975;48.660;10.164;2022-10-26T08:12:11;95898.69;;;13.30;100.00
73674;BME280;61975;48.660;10.164;2022-10-26T08:14:41;95896.31;;;13.42;100.00
73674;BME280;61975;48.660;10.164;2022-10-26T08:17:06;95895.13;;;13.57;100.00
73674;BME280;61975;48.660;10.164;2022-10-26T08:19:32;95890.75;;;13.74;100.00
73674;BME280;61975;48.660;10.164;2022-10-26T08:21:57;95882.00;;;13.89;100.00
73674;BME280;61975;48.660;10.164;2022-10-26T08:24:22;95885.59;;;13.90;100.00
73674;BME280;61975;48.660;10.164;2022-10-26T08:26:48;95884.81;;;13.93;100.00
73674;BME280;61975;48.660;10.164;2022-10-26T08:29:13;95884.00;;;13.89;100.00
73674;BME280;61975;48.660;10.164;2022-10-26T08:31:39;95890.38;;;13.86;100.00
73674;BME280;61975;48.660;10.164;2022-10-26T08:34:04;95896.78;;;13.94;100.00
73674;BME280;61975;48.660;10.164;2022-10-26T08:36:29;95898.75;;;13.97;100.00
73674;BME280;61975;48.660;10.164;2022-10-26T08:38:55;95890.38;;;14.00;100.00
73674;BME280;61975;48.660;10.164;2022-10-26T08:41:44;95896.38;;;14.09;100.00
73674;BME280;61975;48.660;10.164;2022-10-26T08:46:45;95899.16;;;14.09;100.00
73674;BME280;61975;48.660;10.164;2022-10-26T08:49:25;95893.56;;;14.16;100.00
73674;BME280;61975;48.660;10.164;2022-10-26T08:51:56;95897.97;;;14.28;100.00
73674;BME280;61975;48.660;10.164;2022-10-26T08:57:01;95902.75;;;14.41;100.00
73674;BME280;61975;48.660;10.164;2022-10-26T08:59:46;95899.91;;;14.52;100.00
73674;BME280;61975;48.660;10.164;2022-10-26T09:02:15;95899.50;;;14.60;100.00
73674;BME280;61975;48.660;10.164;2022-10-26T09:04:43;95899.09;;;14.72;100.00
73674;BME280;61975;48.660;10.164;2022-10-26T09:12:51;95898.19;;;15.00;100.00
73674;BME280;61975;48.660;10.164;2022-10-26T09:15:31;95904.59;;;14.93;100.00
73674;BME280;61975;48.660;10.164;2022-10-26T09:26:14;95913.41;;;14.81;100.00
73674;BME280;61975;48.660;10.164;2022-10-26T09:28:46;95906.25;;;14.77;100.00
73674;BME280;61975;48.660;10.164;2022-10-26T09:31:14;95921.03;;;14.77;100.00
73674;BME280;61975;48.660;10.164;2022-10-26T09:33:40;95921.03;;;14.81;100.00
73674;BME280;61975;48.660;10.164;2022-10-26T09:36:09;95928.56;;;14.87;100.00
73674;BME280;61975;48.660;10.164;2022-10-26T09:44:20;95929.69;;;15.14;100.00
73674;BME280;61975;48.660;10.164;2022-10-26T09:47:46;95932.41;;;15.28;100.00
73674;BME280;61975;48.660;10.164;2022-10-26T09:49:49;95935.16;;;15.49;100.00
73674;BME280;61975;48.660;10.164;2022-10-26T09:52:16;95938.25;;;15.65;100.00
73674;BME280;61975;48.660;10.164;2022-10-26T09:54:42;95939.75;;;15.80;100.00
73674;BME280;61975;48.660;10.164;2022-10-26T09:57:08;95941.28;;;15.92;100.00
73674;BME280;61975;48.660;10.164;2022-10-26T09:59:39;95944.81;;;15.99;100.00
73674;BME280;61975;48.660;10.164;2022-10-26T10:04:56;95955.50;;;16.15;100.00
73674;BME280;61975;48.660;10.164;2022-10-26T10:07:21;95956.19;;;16.29;100.00
73674;BME280;61975;48.660;10.164;2022-10-26T10:10:08;95961.72;;;16.43;100.00
73674;BME280;61975;48.660;10.164;2022-10-26T10:12:38;95953.66;;;16.49;100.00
73674;BME280;61975;48.660;10.164;2022-10-26T10:15:04;95962.88;;;16.50;100.00
73674;BME280;61975;48.660;10.164;2022-10-26T10:17:30;95960.00;;;16.57;100.00
73674;BME280;61975;48.660;10.164;2022-10-26T10:20:06;95963.50;;;16.68;100.00
73674;BME280;61975;48.660;10.164;2022-10-26T10:22:32;95969.50;;;16.70;99.07
73674;BME280;61975;48.660;10.164;2022-10-26T10:25:02;95971.44;;;16.76;98.28
73674;BME280;61975;48.660;10.164;2022-10-26T10:27:29;95973.75;;;16.85;98.72
73674;BME280;61975;48.660;10.164;2022-10-26T10:29:56;95977.66;;;16.94;97.48
73674;BME280;61975;48.660;10.164;2022-10-26T10:32:27;95979.97;;;17.03;96.55
73674;BME280;61975;48.660;10.164;2022-10-26T10:34:56;95975.13;;;17.07;95.74
73674;BME280;61975;48.660;10.164;2022-10-26T10:37:29;95977.16;;;17.03;95.01
73674;BME280;61975;48.660;10.164;2022-10-26T10:42:34;95984.88;;;16.95;96.82
73674;BME280;61975;48.660;10.164;2022-10-26T10:45:02;95989.75;;;16.88;98.10
73674;BME280;61975;48.660;10.164;2022-10-26T10:47:33;95983.38;;;16.84;98.89
73674;BME280;61975;48.660;10.164;2022-10-26T10:50:05;95985.81;;;16.82;98.92
73674;BME280;61975;48.660;10.164;2022-10-26T10:52:33;95991.81;;;16.84;99.34
73674;BME280;61975;48.660;10.164;2022-10-26T10:55:15;95988.88;;;16.94;99.80
73674;BME280;61975;48.660;10.164;2022-10-26T10:57:51;95985.66;;;16.96;100.00
73674;BME280;61975;48.660;10.164;2022-10-26T11:00:22;95974.84;;;16.98;100.00
73674;BME280;61975;48.660;10.164;2022-10-26T11:03:16;95971.19;;;17.01;100.00
73674;BME280;61975;48.660;10.164;2022-10-26T11:06:12;95979.97;;;17.03;100.00
73674;BME280;61975;48.660;10.164;2022-10-26T11:08:45;95975.91;;;17.11;99.94
73674;BME280;61975;48.660;10.164;2022-10-26T11:11:22;95975.84;;;17.14;98.96
73674;BME280;61975;48.660;10.164;2022-10-26T11:14:01;95978.66;;;17.14;97.50
73674;BME280;61975;48.660;10.164;2022-10-26T11:16:33;95978.72;;;17.11;96.10
73674;BME280;61975;48.660;10.164;2022-10-26T11:19:07;95992.66;;;17.18;98.32
73674;BME280;61975;48.660;10.164;2022-10-26T11:21:43;95980.56;;;17.21;97.53
73674;BME280;61975;48.660;10.164;2022-10-26T11:24:11;95992.19;;;17.23;96.08
73674;BME280;61975;48.660;10.164;2022-10-26T11:26:51;95980.97;;;17.23;95.31
73674;BME280;61975;48.660;10.164;2022-10-26T11:29:25;95985.34;;;17.24;96.42
73674;BME280;61975;48.660;10.164;2022-10-26T11:37:39;95993.56;;;17.08;96.95
73674;BME280;61975;48.660;10.164;2022-10-26T11:45:31;95976.34;;;17.39;79.32
73674;BME280;61975;48.660;10.164;2022-10-26T11:50:33;95989.00;;;17.58;77.13
73674;BME280;61975;48.660;10.164;2022-10-26T11:55:39;95990.13;;;17.94;72.62
73674;BME280;61975;48.660;10.164;2022-10-26T11:58:07;95988.31;;;18.07;72.79
73674;BME280;61975;48.660;10.164;2022-10-26T12:00:42;96003.41;;;18.20;73.04
73674;BME280;61975;48.660;10.164;2022-10-26T12:03:12;96001.59;;;18.33;71.40
73674;BME280;61975;48.660;10.164;2022-10-26T12:08:11;96007.28;;;18.56;69.96
73674;BME280;61975;48.660;10.164;2022-10-26T12:10:40;96025.16;;;18.69;69.33
73674;BME280;61975;48.660;10.164;2022-10-26T12:13:31;96010.13;;;18.79;67.33
73674;BME280;61975;48.660;10.164;2022-10-26T12:16:18;96015.50;;;18.93;66.94
73674;BME280;61975;48.660;10.164;2022-10-26T12:19:03;96016.59;;;18.99;67.10
73674;BME280;61975;48.660;10.164;2022-10-26T12:21:30;96012.97;;;19.22;65.08
73674;BME280;61975;48.660;10.164;2022-10-26T12:23:59;96010.53;;;19.24;65.20
73674;BME280;61975;48.660;10.164;2022-10-26T12:34:13;96027.56;;;19.59;64.08
73674;BME280;61975;48.660;10.164;2022-10-26T12:39:37;96019.75;;;19.86;63.24
73674;BME280;61975;48.660;10.164;2022-10-26T12:47:00;96032.69;;;20.03;59.95
73674;BME280;61975;48.660;10.164;2022-10-26T12:52:32;96029.34;;;20.08;59.62
73674;BME280;61975;48.660;10.164;2022-10-26T12:58:13;96034.28;;;20.59;59.30
73674;BME280;61975;48.660;10.164;2022-10-26T13:08:56;96045.97;;;20.22;59.93
73674;BME280;61975;48.660;10.164;2022-10-26T13:14:05;96041.31;;;20.16;59.92
73674;BME280;61975;48.660;10.164;2022-10-26T13:16:31;96039.91;;;20.04;60.17
73674;BME280;61975;48.660;10.164;2022-10-26T13:18:58;96046.50;;;19.98;60.75
73674;BME280;61975;48.660;10.164;2022-10-26T13:21:25;96055.38;;;19.96;60.66
73674;BME280;61975;48.660;10.164;2022-10-26T13:26:24;96068.25;;;19.97;60.98
73674;BME280;61975;48.660;10.164;2022-10-26T13:29:00;96061.75;;;19.81;61.76
73674;BME280;61975;48.660;10.164;2022-10-26T13:34:03;96056.81;;;19.65;62.77
73674;BME280;61975;48.660;10.164;2022-10-26T13:36:37;96068.09;;;19.65;63.19
73674;BME280;61975;48.660;10.164;2022-10-26T13:39:31;96063.09;;;19.53;63.48
73674;BME280;61975;48.660;10.164;2022-10-26T13:41:56;96057.72;;;19.39;63.37
73674;BME280;61975;48.660;10.164;2022-10-26T13:44:37;96062.13;;;19.40;64.11
73674;BME280;61975;48.660;10.164;2022-10-26T13:47:14;96061.03;;;19.34;64.28
73674;BME280;61975;48.660;10.164;2022-10-26T13:49:44;96057.84;;;19.32;64.46
73674;BME280;61975;48.660;10.164;2022-10-26T13:52:33;96056.63;;;19.33;65.02
73674;BME280;61975;48.660;10.164;2022-10-26T14:02:41;96064.09;;;19.43;64.14
73674;BME280;61975;48.660;10.164;2022-10-26T14:05:11;96075.69;;;19.45;63.98
73674;BME280;61975;48.660;10.164;2022-10-26T14:07:51;96079.31;;;19.46;64.39
73674;BME280;61975;48.660;10.164;2022-10-26T14:12:52;96080.91;;;19.47;63.96
73674;BME280;61975;48.660;10.164;2022-10-26T14:15:22;96072.28;;;19.34;64.50
73674;BME280;61975;48.660;10.164;2022-10-26T14:17:50;96067.59;;;19.28;64.82
73674;BME280;61975;48.660;10.164;2022-10-26T14:20:18;96080.69;;;19.38;65.19
73674;BME280;61975;48.660;10.164;2022-10-26T14:22:44;96083.81;;;19.43;65.13
73674;BME280;61975;48.660;10.164;2022-10-26T14:25:25;96081.72;;;19.47;64.76
73674;BME280;61975;48.660;10.164;2022-10-26T14:27:51;96090.03;;;19.54;64.26
73674;BME280;61975;48.660;10.164;2022-10-26T14:32:47;96087.91;;;19.81;63.89
73674;BME280;61975;48.660;10.164;2022-10-26T14:35:13;96089.31;;;20.12;62.73
73674;BME280;61975;48.660;10.164;2022-10-26T14:37:59;96092.63;;;20.62;60.72
73674;BME280;61975;48.660;10.164;2022-10-26T14:40:29;96092.47;;;21.05;59.43
73674;BME280;61975;48.660;10.164;2022-10-26T14:42:58;96097.09;;;22.99;53.77
73674;BME280;61975;48.660;10.164;2022-10-26T14:45:29;96098.63;;;24.52;49.72
73674;BME280;61975;48.660;10.164;2022-10-26T14:47:57;96098.50;;;25.08;47.79
73674;BME280;61975;48.660;10.164;2022-10-26T14:50:23;96106.69;;;26.75;43.68
73674;BME280;61975;48.660;10.164;2022-10-26T14:52:57;96105.56;;;28.44;40.37
73674;BME280;61975;48.660;10.164;2022-10-26T14:55:24;96112.50;;;30.83;36.16
73674;BME280;61975;48.660;10.164;2022-10-26T14:57:51;96109.25;;;32.95;32.72
73674;BME280;61975;48.660;10.164;2022-10-26T15:00:23;96112.31;;;34.63;29.49
73674;BME280;61975;48.660;10.164;2022-10-26T15:02:51;96107.47;;;35.33;27.97
73674;BME280;61975;48.660;10.164;2022-10-26T15:07:50;96120.72;;;36.42;26.41
73674;BME280;61975;48.660;10.164;2022-10-26T15:15:34;96115.69;;;38.09;24.41
73674;BME280;61975;48.660;10.164;2022-10-26T15:18:00;96112.25;;;38.36;23.63
73674;BME280;61975;48.660;10.164;2022-10-26T15:20:27;96112.59;;;38.33;23.89
73674;BME280;61975;48.660;10.164;2022-10-26T15:23:02;96118.28;;;37.07;25.04
73674;BME280;61975;48.660;10.164;2022-10-26T15:25:32;96120.09;;;36.49;25.55